PWSweather.com
Personal Weather Stations
Station Observations
RHPWSHOR1
Lostock, BoltonGB

LostockBoltonGB

Lat: 53.58073044, Lon: -2.52344131

Elevation: 389

Station Type: Oregon Scientific WMR100

Latest ConditionsUpdated 6:57:14 PM GMT Sunday, Jan 25, 2015
Currently Today's Max Today's Min Today's Average
Temperature 47.7°F8.7°C 48.9°F9.4°C 35.4°F1.9°C 42.1°F5.6°C
Dew Point 37.6°F3.1°C 38.0°F3.3°C 22.1°F-5.5°C 28.9°F-1.7°C
Winds 5.4 mph SSW8.7 kmh SSW 6.0 mph SSW9.7 kmh SSW - 1.9 mph 3.1 kmh
Wind Gusts 5.4 mph8.7 kmh 6.0 mph9.7 kmh - -
Humidity 68% 73% 51% 59%
Pressure 29.62 in1003.0 mb 29.79 in1008.8 mb 29.59 in1002.0 mb -
Hour Temp Dew Point Humidity Winds Wind Gusts Pressure Precip Precip Rate Daily Precip Total
06:57 PM 47.7°F8.7°C 37.6°F3.1°C 68% 5.4 mph SSW8.7 kmh SSW 5.4 mph8.7 kmh 29.62 in1003.0 mb 0.00 in0.0 mm 0.00 in/hr0.0 mm/hr 0.00 in0.0 mm
06:50 PM 47.8°F8.8°C 37.8°F3.2°C 68% 5.4 mph SSW8.7 kmh SSW 5.4 mph8.7 kmh 29.59 in1002.0 mb 0.00 in0.0 mm 0.00 in/hr0.0 mm/hr 0.00 in0.0 mm
06:43 PM 47.8°F8.8°C 37.8°F3.2°C 68% 5.4 mph SSW8.7 kmh SSW 5.4 mph8.7 kmh 29.59 in1002.0 mb 0.00 in0.0 mm 0.00 in/hr0.0 mm/hr 0.00 in0.0 mm
06:36 PM 48.0°F8.9°C 38.0°F3.3°C 68% 5.4 mph SSW8.7 kmh SSW 5.4 mph8.7 kmh 29.62 in1003.0 mb 0.00 in0.0 mm 0.00 in/hr0.0 mm/hr 0.00 in0.0 mm
06:29 PM 48.0°F8.9°C 37.6°F3.1°C 67% 5.4 mph SSW8.7 kmh SSW 5.4 mph8.7 kmh 29.62 in1003.0 mb 0.00 in0.0 mm 0.00 in/hr0.0 mm/hr 0.00 in0.0 mm
06:22 PM 48.0°F8.9°C 37.6°F3.1°C 67% 5.4 mph SSW8.7 kmh SSW 5.4 mph8.7 kmh 29.62 in1003.0 mb 0.00 in0.0 mm 0.00 in/hr0.0 mm/hr 0.00 in0.0 mm
06:15 PM 48.2°F9.0°C 37.4°F3.0°C 66% 5.4 mph SSW8.7 kmh SSW 5.4 mph8.7 kmh 29.62 in1003.0 mb 0.00 in0.0 mm 0.00 in/hr0.0 mm/hr 0.00 in0.0 mm
06:08 PM 48.2°F9.0°C 37.4°F3.0°C 66% 5.4 mph SSW8.7 kmh SSW 5.4 mph8.7 kmh 29.62 in1003.0 mb 0.00 in0.0 mm 0.00 in/hr0.0 mm/hr 0.00 in0.0 mm
06:01 PM 48.2°F9.0°C 37.4°F3.0°C 66% 5.4 mph SSW8.7 kmh SSW 5.4 mph8.7 kmh 29.59 in1002.0 mb 0.00 in0.0 mm 0.00 in/hr0.0 mm/hr 0.00 in0.0 mm
05:54 PM 48.2°F9.0°C 37.4°F3.0°C 66% 5.4 mph SSW8.7 kmh SSW 5.4 mph8.7 kmh 29.59 in1002.0 mb 0.00 in0.0 mm 0.00 in/hr0.0 mm/hr 0.00 in0.0 mm
05:47 PM 48.4°F9.1°C 37.6°F3.1°C 66% 5.4 mph SSW8.7 kmh SSW 5.4 mph8.7 kmh 29.62 in1003.0 mb 0.00 in0.0 mm 0.00 in/hr0.0 mm/hr 0.00 in0.0 mm
05:40 PM 48.4°F9.1°C 37.6°F3.1°C 66% 3.6 mph SSW5.8 kmh SSW 3.6 mph5.8 kmh 29.62 in1003.0 mb 0.00 in0.0 mm 0.00 in/hr0.0 mm/hr 0.00 in0.0 mm
05:33 PM 48.4°F9.1°C 37.9°F3.3°C 67% 3.6 mph SSW5.8 kmh SSW 3.6 mph5.8 kmh 29.62 in1003.0 mb 0.00 in0.0 mm 0.00 in/hr0.0 mm/hr 0.00 in0.0 mm
05:26 PM 48.4°F9.1°C 37.9°F3.3°C 67% 3.6 mph SSW5.8 kmh SSW 3.6 mph5.8 kmh 29.62 in1003.0 mb 0.00 in0.0 mm 0.00 in/hr0.0 mm/hr 0.00 in0.0 mm
05:19 PM 48.4°F9.1°C 37.9°F3.3°C 67% 3.6 mph SSW5.8 kmh SSW 3.6 mph5.8 kmh 29.62 in1003.0 mb 0.00 in0.0 mm 0.00 in/hr0.0 mm/hr 0.00 in0.0 mm
05:12 PM 48.2°F9.0°C 37.4°F3.0°C 66% 3.6 mph SSW5.8 kmh SSW 3.6 mph5.8 kmh 29.62 in1003.0 mb 0.00 in0.0 mm 0.00 in/hr0.0 mm/hr 0.00 in0.0 mm
05:05 PM 48.0°F8.9°C 36.8°F2.7°C 65% 3.6 mph SSW5.8 kmh SSW 3.6 mph5.8 kmh 29.62 in1003.0 mb 0.00 in0.0 mm 0.00 in/hr0.0 mm/hr 0.00 in0.0 mm
04:58 PM 48.0°F8.9°C 36.4°F2.4°C 64% 3.6 mph SSW5.8 kmh SSW 3.6 mph5.8 kmh 29.62 in1003.0 mb 0.00 in0.0 mm 0.00 in/hr0.0 mm/hr 0.00 in0.0 mm
04:51 PM 48.0°F8.9°C 36.0°F2.2°C 63% 3.6 mph SSW5.8 kmh SSW 3.6 mph5.8 kmh 29.62 in1003.0 mb 0.00 in0.0 mm 0.00 in/hr0.0 mm/hr 0.00 in0.0 mm
04:44 PM 48.0°F8.9°C 35.6°F2.0°C 62% 3.6 mph SSW5.8 kmh SSW 3.6 mph5.8 kmh 29.62 in1003.0 mb 0.00 in0.0 mm 0.00 in/hr0.0 mm/hr 0.00 in0.0 mm
04:37 PM 48.0°F8.9°C 35.2°F1.8°C 61% 3.6 mph SSW5.8 kmh SSW 3.6 mph5.8 kmh 29.62 in1003.0 mb 0.00 in0.0 mm 0.00 in/hr0.0 mm/hr 0.00 in0.0 mm
04:30 PM 48.0°F8.9°C 35.2°F1.8°C 61% 3.6 mph SSW5.8 kmh SSW 3.6 mph5.8 kmh 29.62 in1003.0 mb 0.00 in0.0 mm 0.00 in/hr0.0 mm/hr 0.00 in0.0 mm
04:23 PM 48.2°F9.0°C 35.0°F1.7°C 60% 3.6 mph SSW5.8 kmh SSW 3.6 mph5.8 kmh 29.62 in1003.0 mb 0.00 in0.0 mm 0.00 in/hr0.0 mm/hr 0.00 in0.0 mm
04:16 PM 48.2°F9.0°C 35.0°F1.7°C 60% 3.6 mph SSW5.8 kmh SSW 3.6 mph5.8 kmh 29.62 in1003.0 mb 0.00 in0.0 mm 0.00 in/hr0.0 mm/hr 0.00 in0.0 mm
04:08 PM 48.2°F9.0°C 34.6°F1.4°C 59% 3.6 mph SSW5.8 kmh SSW 3.6 mph5.8 kmh 29.62 in1003.0 mb 0.00 in0.0 mm 0.00 in/hr0.0 mm/hr 0.00 in0.0 mm
04:01 PM 48.2°F9.0°C 34.6°F1.4°C 59% 3.6 mph SSW5.8 kmh SSW 3.6 mph5.8 kmh 29.62 in1003.0 mb 0.00 in0.0 mm 0.00 in/hr0.0 mm/hr 0.00 in0.0 mm
03:55 PM 48.2°F9.0°C 34.1°F1.2°C 58% 3.6 mph SSW5.8 kmh SSW 3.6 mph5.8 kmh 29.62 in1003.0 mb 0.00 in0.0 mm 0.00 in/hr0.0 mm/hr 0.00 in0.0 mm
03:48 PM 48.2°F9.0°C 33.7°F0.9°C 57% 3.6 mph SSW5.8 kmh SSW 3.6 mph5.8 kmh 29.62 in1003.0 mb 0.00 in0.0 mm 0.00 in/hr0.0 mm/hr 0.00 in0.0 mm
03:41 PM 48.4°F9.1°C 33.9°F1.1°C 57% 3.6 mph SSW5.8 kmh SSW 3.6 mph5.8 kmh 29.62 in1003.0 mb 0.00 in0.0 mm 0.00 in/hr0.0 mm/hr 0.00 in0.0 mm
03:34 PM 48.6°F9.2°C 33.6°F0.9°C 56% 3.6 mph SSW5.8 kmh SSW 3.6 mph5.8 kmh 29.62 in1003.0 mb 0.00 in0.0 mm 0.00 in/hr0.0 mm/hr 0.00 in0.0 mm
03:27 PM 48.7°F9.3°C 33.8°F1.0°C 56% 3.6 mph SSW5.8 kmh SSW 3.6 mph5.8 kmh 29.62 in1003.0 mb 0.00 in0.0 mm 0.00 in/hr0.0 mm/hr 0.00 in0.0 mm
03:20 PM 48.7°F9.3°C 33.3°F0.7°C 55% 3.6 mph SSW5.8 kmh SSW 3.6 mph5.8 kmh 29.65 in1004.1 mb 0.00 in0.0 mm 0.00 in/hr0.0 mm/hr 0.00 in0.0 mm
03:13 PM 48.9°F9.4°C 33.5°F0.8°C 55% 3.6 mph SSW5.8 kmh SSW 3.6 mph5.8 kmh 29.65 in1004.1 mb 0.00 in0.0 mm 0.00 in/hr0.0 mm/hr 0.00 in0.0 mm
03:06 PM 48.7°F9.3°C 33.3°F0.7°C 55% 3.6 mph SSW5.8 kmh SSW 3.6 mph5.8 kmh 29.65 in1004.1 mb 0.00 in0.0 mm 0.00 in/hr0.0 mm/hr 0.00 in0.0 mm
02:59 PM 48.7°F9.3°C 33.3°F0.7°C 55% 1.6 mph SSW2.6 kmh SSW 1.6 mph2.6 kmh 29.65 in1004.1 mb 0.00 in0.0 mm 0.00 in/hr0.0 mm/hr 0.00 in0.0 mm
02:52 PM 48.7°F9.3°C 32.9°F0.5°C 54% 1.6 mph SSW2.6 kmh SSW 2.5 mph4.0 kmh 29.62 in1003.0 mb 0.00 in0.0 mm 0.00 in/hr0.0 mm/hr 0.00 in0.0 mm
02:45 PM 48.7°F9.3°C 32.9°F0.5°C 54% 2.5 mph SSE4.0 kmh SSE 2.5 mph4.0 kmh 29.62 in1003.0 mb 0.00 in0.0 mm 0.00 in/hr0.0 mm/hr 0.00 in0.0 mm
02:38 PM 48.7°F9.3°C 32.9°F0.5°C 54% 2.5 mph SSE4.0 kmh SSE 2.5 mph4.0 kmh 29.62 in1003.0 mb 0.00 in0.0 mm 0.00 in/hr0.0 mm/hr 0.00 in0.0 mm
02:31 PM 48.9°F9.4°C 32.6°F0.3°C 53% 2.5 mph SSE4.0 kmh SSE 2.5 mph4.0 kmh 29.65 in1004.1 mb 0.00 in0.0 mm 0.00 in/hr0.0 mm/hr 0.00 in0.0 mm
02:24 PM 48.7°F9.3°C 32.4°F0.2°C 53% 2.0 mph SSW3.2 kmh SSW 2.0 mph3.2 kmh 29.65 in1004.1 mb 0.00 in0.0 mm 0.00 in/hr0.0 mm/hr 0.00 in0.0 mm
02:17 PM 48.7°F9.3°C 31.9°F-0.1°C 52% 1.3 mph SSW2.1 kmh SSW 2.7 mph4.3 kmh 29.65 in1004.1 mb 0.00 in0.0 mm 0.00 in/hr0.0 mm/hr 0.00 in0.0 mm
02:10 PM 48.7°F9.3°C 31.9°F-0.1°C 52% 2.0 mph SSW3.2 kmh SSW 2.0 mph3.2 kmh 29.65 in1004.1 mb 0.00 in0.0 mm 0.00 in/hr0.0 mm/hr 0.00 in0.0 mm
02:03 PM 48.6°F9.2°C 31.8°F-0.1°C 52% 3.4 mph SSW5.5 kmh SSW 3.4 mph5.5 kmh 29.65 in1004.1 mb 0.00 in0.0 mm 0.00 in/hr0.0 mm/hr 0.00 in0.0 mm
01:56 PM 48.6°F9.2°C 31.8°F-0.1°C 52% 1.6 mph WSW2.6 kmh WSW 1.6 mph2.6 kmh 29.65 in1004.1 mb 0.00 in0.0 mm 0.00 in/hr0.0 mm/hr 0.00 in0.0 mm
01:49 PM 48.4°F9.1°C 31.1°F-0.5°C 51% 1.6 mph WSW2.6 kmh WSW 1.6 mph2.6 kmh 29.65 in1004.1 mb 0.00 in0.0 mm 0.00 in/hr0.0 mm/hr 0.00 in0.0 mm
01:42 PM 48.4°F9.1°C 31.6°F-0.2°C 52% Calm Calm -- 29.65 in1004.1 mb 0.00 in0.0 mm 0.00 in/hr0.0 mm/hr 0.00 in0.0 mm
01:35 PM 48.4°F9.1°C 31.6°F-0.2°C 52% Calm Calm -- 29.65 in1004.1 mb 0.00 in0.0 mm 0.00 in/hr0.0 mm/hr 0.00 in0.0 mm
01:27 PM 48.0°F8.9°C 31.3°F-0.4°C 52% Calm Calm -- 29.65 in1004.1 mb 0.00 in0.0 mm 0.00 in/hr0.0 mm/hr 0.00 in0.0 mm
01:20 PM 48.0°F8.9°C 31.7°F-0.2°C 53% Calm Calm -- 29.65 in1004.1 mb 0.00 in0.0 mm 0.00 in/hr0.0 mm/hr 0.00 in0.0 mm
01:14 PM 48.2°F9.0°C 31.9°F-0.1°C 53% Calm Calm -- 29.65 in1004.1 mb 0.00 in0.0 mm 0.00 in/hr0.0 mm/hr 0.00 in0.0 mm
01:11 PM 48.0°F8.9°C 32.2°F0.1°C 54% Calm Calm -- 29.65 in1004.1 mb 0.00 in0.0 mm 0.00 in/hr0.0 mm/hr 0.00 in0.0 mm
01:04 PM 47.5°F8.6°C 31.7°F-0.2°C 54% 1.6 mph NNE2.6 kmh NNE 1.6 mph2.6 kmh 29.65 in1004.1 mb 0.00 in0.0 mm 0.00 in/hr0.0 mm/hr 0.00 in0.0 mm
12:57 PM 47.1°F8.4°C 31.4°F-0.3°C 54% Calm Calm -- 29.65 in1004.1 mb 0.00 in0.0 mm 0.00 in/hr0.0 mm/hr 0.00 in0.0 mm
12:50 PM 46.8°F8.2°C 31.5°F-0.3°C 55% 0.9 mph NNE1.4 kmh NNE 0.9 mph1.4 kmh 29.65 in1004.1 mb 0.00 in0.0 mm 0.00 in/hr0.0 mm/hr 0.00 in0.0 mm
12:43 PM 46.2°F7.9°C 31.0°F-0.6°C 55% 0.9 mph NNE1.4 kmh NNE 0.9 mph1.4 kmh 29.65 in1004.1 mb 0.00 in0.0 mm 0.00 in/hr0.0 mm/hr 0.00 in0.0 mm
12:36 PM 45.9°F7.7°C 30.6°F-0.8°C 55% Calm Calm -- 29.68 in1005.1 mb 0.00 in0.0 mm 0.00 in/hr0.0 mm/hr 0.00 in0.0 mm
12:29 PM 45.7°F7.6°C 30.5°F-0.8°C 55% Calm Calm -- 29.68 in1005.1 mb 0.00 in0.0 mm 0.00 in/hr0.0 mm/hr 0.00 in0.0 mm
12:22 PM 45.3°F7.4°C 30.1°F-1.1°C 55% 1.1 mph NNE1.8 kmh NNE 1.1 mph1.8 kmh 29.68 in1005.1 mb 0.00 in0.0 mm 0.00 in/hr0.0 mm/hr 0.00 in0.0 mm
12:15 PM 45.1°F7.3°C 30.4°F-0.9°C 56% 1.1 mph NNE1.8 kmh NNE 1.1 mph1.8 kmh 29.68 in1005.1 mb 0.00 in0.0 mm 0.00 in/hr0.0 mm/hr 0.00 in0.0 mm
12:08 PM 44.8°F7.1°C 30.1°F-1.1°C 56% 1.1 mph NNE1.8 kmh NNE 1.1 mph1.8 kmh 29.68 in1005.1 mb 0.00 in0.0 mm 0.00 in/hr0.0 mm/hr 0.00 in0.0 mm
12:01 PM 44.6°F7.0°C 29.9°F-1.2°C 56% Calm Calm -- 29.68 in1005.1 mb 0.00 in0.0 mm 0.00 in/hr0.0 mm/hr 0.00 in0.0 mm
11:54 AM 44.4°F6.9°C 30.2°F-1.0°C 57% 1.1 mph NNE1.8 kmh NNE 1.1 mph1.8 kmh 29.68 in1005.1 mb 0.00 in0.0 mm 0.00 in/hr0.0 mm/hr 0.00 in0.0 mm
11:47 AM 44.1°F6.7°C 29.8°F-1.2°C 57% Calm Calm -- 29.68 in1005.1 mb 0.00 in0.0 mm 0.00 in/hr0.0 mm/hr 0.00 in0.0 mm
11:40 AM 43.9°F6.6°C 30.1°F-1.1°C 58% 1.1 mph NNE1.8 kmh NNE 1.1 mph1.8 kmh 29.68 in1005.1 mb 0.00 in0.0 mm 0.00 in/hr0.0 mm/hr 0.00 in0.0 mm
11:33 AM 43.5°F6.4°C 29.7°F-1.3°C 58% 0.9 mph NNE1.4 kmh NNE 0.9 mph1.4 kmh 29.71 in1006.1 mb 0.00 in0.0 mm 0.00 in/hr0.0 mm/hr 0.00 in0.0 mm
11:26 AM 43.2°F6.2°C 29.4°F-1.4°C 58% Calm Calm 1.3 mph2.1 kmh 29.71 in1006.1 mb 0.00 in0.0 mm 0.00 in/hr0.0 mm/hr 0.00 in0.0 mm
11:19 AM 43.0°F6.1°C 29.7°F-1.3°C 59% 1.1 mph NNW1.8 kmh NNW 1.1 mph1.8 kmh 29.71 in1006.1 mb 0.00 in0.0 mm 0.00 in/hr0.0 mm/hr 0.00 in0.0 mm
11:12 AM 42.6°F5.9°C 29.3°F-1.5°C 59% 1.3 mph NNW2.1 kmh NNW 1.3 mph2.1 kmh 29.71 in1006.1 mb 0.00 in0.0 mm 0.00 in/hr0.0 mm/hr 0.00 in0.0 mm
11:05 AM 42.3°F5.7°C 29.4°F-1.4°C 60% 1.6 mph WSW2.6 kmh WSW 1.6 mph2.6 kmh 29.71 in1006.1 mb 0.00 in0.0 mm 0.00 in/hr0.0 mm/hr 0.00 in0.0 mm
10:58 AM 42.1°F5.6°C 29.2°F-1.6°C 60% Calm Calm 1.6 mph2.6 kmh 29.71 in1006.1 mb 0.00 in0.0 mm 0.00 in/hr0.0 mm/hr 0.00 in0.0 mm
10:51 AM 41.9°F5.5°C 29.5°F-1.4°C 61% 0.9 mph NE1.4 kmh NE 0.9 mph1.4 kmh 29.71 in1006.1 mb 0.00 in0.0 mm 0.00 in/hr0.0 mm/hr 0.00 in0.0 mm
10:44 AM 41.5°F5.3°C 29.5°F-1.4°C 62% 1.1 mph ENE1.8 kmh ENE 1.1 mph1.8 kmh 29.71 in1006.1 mb 0.00 in0.0 mm 0.00 in/hr0.0 mm/hr 0.00 in0.0 mm
10:36 AM 41.2°F5.1°C 29.2°F-1.6°C 62% Calm Calm -- 29.71 in1006.1 mb 0.00 in0.0 mm 0.00 in/hr0.0 mm/hr 0.00 in0.0 mm
10:30 AM 40.8°F4.9°C 29.2°F-1.6°C 63% 0.9 mph ENE1.4 kmh ENE 0.9 mph1.4 kmh 29.71 in1006.1 mb 0.00 in0.0 mm 0.00 in/hr0.0 mm/hr 0.00 in0.0 mm
10:23 AM 40.3°F4.6°C 28.3°F-2.1°C 62% 1.1 mph 1.8 kmh 1.1 mph1.8 kmh 29.71 in1006.1 mb 0.00 in0.0 mm 0.00 in/hr0.0 mm/hr 0.00 in0.0 mm
10:16 AM 39.9°F4.4°C 28.0°F-2.2°C 62% Calm Calm -- 29.71 in1006.1 mb 0.00 in0.0 mm 0.00 in/hr0.0 mm/hr 0.00 in0.0 mm
10:08 AM 39.7°F4.3°C 28.2°F-2.1°C 63% Calm Calm -- 29.71 in1006.1 mb 0.00 in0.0 mm 0.00 in/hr0.0 mm/hr 0.00 in0.0 mm
10:00 AM 39.4°F4.1°C 27.9°F-2.3°C 63% 1.1 mph WSW1.8 kmh WSW 1.1 mph1.8 kmh 29.71 in1006.1 mb 0.00 in0.0 mm 0.00 in/hr0.0 mm/hr 0.00 in0.0 mm
09:53 AM 39.0°F3.9°C 27.5°F-2.5°C 63% 1.1 mph WSW1.8 kmh WSW 1.1 mph1.8 kmh 29.71 in1006.1 mb 0.00 in0.0 mm 0.00 in/hr0.0 mm/hr 0.00 in0.0 mm
09:46 AM 38.7°F3.7°C 26.8°F-2.9°C 62% 1.1 mph WSW1.8 kmh WSW 1.1 mph1.8 kmh 29.74 in1007.1 mb 0.00 in0.0 mm 0.00 in/hr0.0 mm/hr 0.00 in0.0 mm
09:39 AM 38.5°F3.6°C 26.6°F-3.0°C 62% 1.1 mph WSW1.8 kmh WSW 1.1 mph1.8 kmh 29.74 in1007.1 mb 0.00 in0.0 mm 0.00 in/hr0.0 mm/hr 0.00 in0.0 mm
09:32 AM 38.1°F3.4°C 26.3°F-3.2°C 62% Calm Calm -- 29.71 in1006.1 mb 0.00 in0.0 mm 0.00 in/hr0.0 mm/hr 0.00 in0.0 mm
09:25 AM 37.9°F3.3°C 26.1°F-3.3°C 62% Calm Calm -- 29.71 in1006.1 mb 0.00 in0.0 mm 0.00 in/hr0.0 mm/hr 0.00 in0.0 mm
09:18 AM 37.8°F3.2°C 25.5°F-3.6°C 61% Calm Calm -- 29.74 in1007.1 mb 0.00 in0.0 mm 0.00 in/hr0.0 mm/hr 0.00 in0.0 mm
09:11 AM 37.8°F3.2°C 25.9°F-3.4°C 62% Calm Calm -- 29.74 in1007.1 mb 0.00 in0.0 mm 0.00 in/hr0.0 mm/hr 0.00 in0.0 mm
09:04 AM 37.4°F3.0°C 25.2°F-3.8°C 61% 1.3 mph WNW2.1 kmh WNW 1.3 mph2.1 kmh 29.74 in1007.1 mb 0.00 in0.0 mm 0.00 in/hr0.0 mm/hr 0.00 in0.0 mm
08:57 AM 37.2°F2.9°C 25.0°F-3.9°C 61% Calm Calm -- 29.74 in1007.1 mb 0.00 in0.0 mm 0.00 in/hr0.0 mm/hr 0.00 in0.0 mm
08:50 AM 36.9°F2.7°C 24.7°F-4.1°C 61% 1.1 mph SSW1.8 kmh SSW 1.1 mph1.8 kmh 29.74 in1007.1 mb 0.00 in0.0 mm 0.00 in/hr0.0 mm/hr 0.00 in0.0 mm
08:43 AM 36.9°F2.7°C 24.7°F-4.1°C 61% 1.1 mph WNW1.8 kmh WNW 1.1 mph1.8 kmh 29.74 in1007.1 mb 0.00 in0.0 mm 0.00 in/hr0.0 mm/hr 0.00 in0.0 mm
08:36 AM 36.5°F2.5°C 24.0°F-4.4°C 60% Calm Calm -- 29.74 in1007.1 mb 0.00 in0.0 mm 0.00 in/hr0.0 mm/hr 0.00 in0.0 mm
08:29 AM 36.1°F2.3°C 22.8°F-5.1°C 58% Calm Calm -- 29.74 in1007.1 mb 0.00 in0.0 mm 0.00 in/hr0.0 mm/hr 0.00 in0.0 mm
08:22 AM 36.0°F2.2°C 22.6°F-5.2°C 58% 1.1 mph WSW1.8 kmh WSW 1.1 mph1.8 kmh 29.74 in1007.1 mb 0.00 in0.0 mm 0.00 in/hr0.0 mm/hr 0.00 in0.0 mm
08:15 AM 36.0°F2.2°C 22.2°F-5.4°C 57% 1.1 mph WSW1.8 kmh WSW 1.1 mph1.8 kmh 29.74 in1007.1 mb 0.00 in0.0 mm 0.00 in/hr0.0 mm/hr 0.00 in0.0 mm
08:08 AM 36.1°F2.3°C 22.4°F-5.3°C 57% Calm Calm -- 29.74 in1007.1 mb 0.00 in0.0 mm 0.00 in/hr0.0 mm/hr 0.00 in0.0 mm
08:01 AM 36.3°F2.4°C 22.6°F-5.2°C 57% Calm Calm -- 29.74 in1007.1 mb 0.00 in0.0 mm 0.00 in/hr0.0 mm/hr 0.00 in0.0 mm
07:54 AM 36.5°F2.5°C 22.7°F-5.2°C 57% 1.6 mph S2.6 kmh S 1.6 mph2.6 kmh 29.74 in1007.1 mb 0.00 in0.0 mm 0.00 in/hr0.0 mm/hr 0.00 in0.0 mm
07:47 AM 36.3°F2.4°C 22.1°F-5.5°C 56% 2.2 mph WNW3.5 kmh WNW 2.2 mph3.5 kmh 29.74 in1007.1 mb 0.00 in0.0 mm 0.00 in/hr0.0 mm/hr 0.00 in0.0 mm
07:40 AM 36.7°F2.6°C 22.5°F-5.3°C 56% Calm Calm -- 29.74 in1007.1 mb 0.00 in0.0 mm 0.00 in/hr0.0 mm/hr 0.00 in0.0 mm
07:33 AM 36.9°F2.7°C 22.7°F-5.2°C 56% Calm Calm -- 29.74 in1007.1 mb 0.00 in0.0 mm 0.00 in/hr0.0 mm/hr 0.00 in0.0 mm
07:26 AM 37.2°F2.9°C 23.0°F-5.0°C 56% 1.3 mph W2.1 kmh W 1.3 mph2.1 kmh 29.74 in1007.1 mb 0.00 in0.0 mm 0.00 in/hr0.0 mm/hr 0.00 in0.0 mm
07:19 AM 37.4°F3.0°C 22.7°F-5.2°C 55% 2.2 mph S3.5 kmh S 2.2 mph3.5 kmh 29.74 in1007.1 mb 0.00 in0.0 mm 0.00 in/hr0.0 mm/hr 0.00 in0.0 mm
07:11 AM 37.6°F3.1°C 22.9°F-5.1°C 55% Calm Calm -- 29.74 in1007.1 mb 0.00 in0.0 mm 0.00 in/hr0.0 mm/hr 0.00 in0.0 mm
07:03 AM 37.9°F3.3°C 23.7°F-4.6°C 56% 1.1 mph SSW1.8 kmh SSW 1.3 mph2.1 kmh 29.74 in1007.1 mb 0.00 in0.0 mm 0.00 in/hr0.0 mm/hr 0.00 in0.0 mm
06:56 AM 38.1°F3.4°C 23.8°F-4.6°C 56% Calm Calm -- 29.74 in1007.1 mb 0.00 in0.0 mm 0.00 in/hr0.0 mm/hr 0.00 in0.0 mm
06:49 AM 38.1°F3.4°C 23.8°F-4.6°C 56% Calm Calm -- 29.74 in1007.1 mb 0.00 in0.0 mm 0.00 in/hr0.0 mm/hr 0.00 in0.0 mm
06:42 AM 38.1°F3.4°C 23.8°F-4.6°C 56% 2.0 mph SSE3.2 kmh SSE 2.0 mph3.2 kmh 29.74 in1007.1 mb 0.00 in0.0 mm 0.00 in/hr0.0 mm/hr 0.00 in0.0 mm
06:35 AM 38.1°F3.4°C 23.4°F-4.8°C 55% 1.3 mph NW2.1 kmh NW 1.3 mph2.1 kmh 29.74 in1007.1 mb 0.00 in0.0 mm 0.00 in/hr0.0 mm/hr 0.00 in0.0 mm
06:28 AM 37.9°F3.3°C 23.2°F-4.9°C 55% 1.1 mph SSW1.8 kmh SSW 1.1 mph1.8 kmh 29.74 in1007.1 mb 0.00 in0.0 mm 0.00 in/hr0.0 mm/hr 0.00 in0.0 mm
06:21 AM 38.1°F3.4°C 23.4°F-4.8°C 55% 1.1 mph SSW1.8 kmh SSW 1.1 mph1.8 kmh 29.76 in1007.8 mb 0.00 in0.0 mm 0.00 in/hr0.0 mm/hr 0.00 in0.0 mm
06:14 AM 38.1°F3.4°C 23.4°F-4.8°C 55% 1.1 mph SSW1.8 kmh SSW 1.1 mph1.8 kmh 29.76 in1007.8 mb 0.00 in0.0 mm 0.00 in/hr0.0 mm/hr 0.00 in0.0 mm
06:07 AM 38.1°F3.4°C 23.0°F-5.0°C 54% Calm Calm -- 29.74 in1007.1 mb 0.00 in0.0 mm 0.00 in/hr0.0 mm/hr 0.00 in0.0 mm
06:00 AM 38.5°F3.6°C 23.3°F-4.8°C 54% Calm Calm -- 29.74 in1007.1 mb 0.00 in0.0 mm 0.00 in/hr0.0 mm/hr 0.00 in0.0 mm
05:53 AM 38.8°F3.8°C 23.6°F-4.7°C 54% 1.6 mph WSW2.6 kmh WSW 1.6 mph2.6 kmh 29.74 in1007.1 mb 0.00 in0.0 mm 0.00 in/hr0.0 mm/hr 0.00 in0.0 mm
05:46 AM 38.8°F3.8°C 23.6°F-4.7°C 54% 2.7 mph SW4.3 kmh SW 2.7 mph4.3 kmh 29.76 in1007.8 mb 0.00 in0.0 mm 0.00 in/hr0.0 mm/hr 0.00 in0.0 mm
05:39 AM 38.8°F3.8°C 23.6°F-4.7°C 54% 2.5 mph SSW4.0 kmh SSW 2.5 mph4.0 kmh 29.76 in1007.8 mb 0.00 in0.0 mm 0.00 in/hr0.0 mm/hr 0.00 in0.0 mm
05:32 AM 39.0°F3.9°C 23.8°F-4.6°C 54% 2.9 mph WSW4.7 kmh WSW 2.9 mph4.7 kmh 29.76 in1007.8 mb 0.00 in0.0 mm 0.00 in/hr0.0 mm/hr 0.00 in0.0 mm
05:25 AM 39.0°F3.9°C 24.2°F-4.3°C 55% 1.6 mph S2.6 kmh S 1.6 mph2.6 kmh 29.76 in1007.8 mb 0.00 in0.0 mm 0.00 in/hr0.0 mm/hr 0.00 in0.0 mm
05:18 AM 39.0°F3.9°C 24.2°F-4.3°C 55% 2.5 mph SSW4.0 kmh SSW 2.5 mph4.0 kmh 29.76 in1007.8 mb 0.00 in0.0 mm 0.00 in/hr0.0 mm/hr 0.00 in0.0 mm
05:11 AM 38.8°F3.8°C 24.1°F-4.4°C 55% 2.2 mph S3.5 kmh S 2.2 mph3.5 kmh 29.76 in1007.8 mb 0.00 in0.0 mm 0.00 in/hr0.0 mm/hr 0.00 in0.0 mm
05:04 AM 38.8°F3.8°C 24.1°F-4.4°C 55% 2.0 mph SSW3.2 kmh SSW 2.0 mph3.2 kmh 29.76 in1007.8 mb 0.00 in0.0 mm 0.00 in/hr0.0 mm/hr 0.00 in0.0 mm
04:57 AM 38.8°F3.8°C 24.1°F-4.4°C 55% 1.3 mph WSW2.1 kmh WSW 1.3 mph2.1 kmh 29.76 in1007.8 mb 0.00 in0.0 mm 0.00 in/hr0.0 mm/hr 0.00 in0.0 mm
04:50 AM 38.8°F3.8°C 24.1°F-4.4°C 55% 1.3 mph S2.1 kmh S 1.3 mph2.1 kmh 29.76 in1007.8 mb 0.00 in0.0 mm 0.00 in/hr0.0 mm/hr 0.00 in0.0 mm
04:43 AM 38.8°F3.8°C 24.1°F-4.4°C 55% 1.3 mph WSW2.1 kmh WSW 1.3 mph2.1 kmh 29.76 in1007.8 mb 0.00 in0.0 mm 0.00 in/hr0.0 mm/hr 0.00 in0.0 mm
04:36 AM 38.8°F3.8°C 24.1°F-4.4°C 55% 1.6 mph SSW2.6 kmh SSW 1.6 mph2.6 kmh 29.76 in1007.8 mb 0.00 in0.0 mm 0.00 in/hr0.0 mm/hr 0.00 in0.0 mm
04:29 AM 39.0°F3.9°C 24.2°F-4.3°C 55% 1.1 mph S1.8 kmh S 1.6 mph2.6 kmh 29.76 in1007.8 mb 0.00 in0.0 mm 0.00 in/hr0.0 mm/hr 0.00 in0.0 mm
04:22 AM 39.0°F3.9°C 24.7°F-4.1°C 56% 1.3 mph SSW2.1 kmh SSW 1.3 mph2.1 kmh 29.76 in1007.8 mb 0.00 in0.0 mm 0.00 in/hr0.0 mm/hr 0.00 in0.0 mm
04:15 AM 39.0°F3.9°C 24.7°F-4.1°C 56% 2.5 mph S4.0 kmh S 2.5 mph4.0 kmh 29.76 in1007.8 mb 0.00 in0.0 mm 0.00 in/hr0.0 mm/hr 0.00 in0.0 mm
04:08 AM 39.0°F3.9°C 24.7°F-4.1°C 56% 2.7 mph S4.3 kmh S 2.7 mph4.3 kmh 29.76 in1007.8 mb 0.00 in0.0 mm 0.00 in/hr0.0 mm/hr 0.00 in0.0 mm
04:00 AM 39.0°F3.9°C 25.1°F-3.8°C 57% 1.6 mph SSW2.6 kmh SSW 1.6 mph2.6 kmh 29.76 in1007.8 mb 0.00 in0.0 mm 0.00 in/hr0.0 mm/hr 0.00 in0.0 mm
03:54 AM 38.7°F3.7°C 24.8°F-4.0°C 57% 2.9 mph SSW4.7 kmh SSW 2.9 mph4.7 kmh 29.76 in1007.8 mb 0.00 in0.0 mm 0.00 in/hr0.0 mm/hr 0.00 in0.0 mm
03:47 AM 38.5°F3.6°C 24.2°F-4.3°C 56% 1.6 mph S2.6 kmh S 1.6 mph2.6 kmh 29.76 in1007.8 mb 0.00 in0.0 mm 0.00 in/hr0.0 mm/hr 0.00 in0.0 mm
03:41 AM 38.5°F3.6°C 24.2°F-4.3°C 56% 1.3 mph SSW2.1 kmh SSW 1.3 mph2.1 kmh 29.76 in1007.8 mb 0.00 in0.0 mm 0.00 in/hr0.0 mm/hr 0.00 in0.0 mm
03:34 AM 38.5°F3.6°C 24.6°F-4.1°C 57% 2.7 mph SSW4.3 kmh SSW 2.7 mph4.3 kmh 29.76 in1007.8 mb 0.00 in0.0 mm 0.00 in/hr0.0 mm/hr 0.00 in0.0 mm
03:27 AM 38.5°F3.6°C 25.0°F-3.9°C 58% 3.4 mph SSE5.5 kmh SSE 3.4 mph5.5 kmh 29.76 in1007.8 mb 0.00 in0.0 mm 0.00 in/hr0.0 mm/hr 0.00 in0.0 mm
03:20 AM 38.1°F3.4°C 24.7°F-4.1°C 58% 2.9 mph SSE4.7 kmh SSE 2.9 mph4.7 kmh 29.76 in1007.8 mb 0.00 in0.0 mm 0.00 in/hr0.0 mm/hr 0.00 in0.0 mm
03:13 AM 38.1°F3.4°C 24.7°F-4.1°C 58% 2.0 mph WSW3.2 kmh WSW 2.9 mph4.7 kmh 29.76 in1007.8 mb 0.00 in0.0 mm 0.00 in/hr0.0 mm/hr 0.00 in0.0 mm
03:06 AM 38.1°F3.4°C 24.7°F-4.1°C 58% 1.6 mph WNW2.6 kmh WNW 1.6 mph2.6 kmh 29.76 in1007.8 mb 0.00 in0.0 mm 0.00 in/hr0.0 mm/hr 0.00 in0.0 mm
02:59 AM 38.1°F3.4°C 24.7°F-4.1°C 58% 3.4 mph SSW5.5 kmh SSW 3.4 mph5.5 kmh 29.76 in1007.8 mb 0.00 in0.0 mm 0.00 in/hr0.0 mm/hr 0.00 in0.0 mm
02:52 AM 37.9°F3.3°C 24.9°F-3.9°C 59% 2.5 mph SSW4.0 kmh SSW 2.5 mph4.0 kmh 29.79 in1008.8 mb 0.00 in0.0 mm 0.00 in/hr0.0 mm/hr 0.00 in0.0 mm
02:48 AM 37.9°F3.3°C 25.3°F-3.7°C 60% 3.1 mph SSW5.0 kmh SSW 3.1 mph5.0 kmh 29.79 in1008.8 mb 0.00 in0.0 mm 0.00 in/hr0.0 mm/hr 0.00 in0.0 mm
02:41 AM 37.6°F3.1°C 25.4°F-3.7°C 61% 3.1 mph SSW5.0 kmh SSW 3.4 mph5.5 kmh 29.79 in1008.8 mb 0.00 in0.0 mm 0.00 in/hr0.0 mm/hr 0.00 in0.0 mm
02:34 AM 37.6°F3.1°C 26.9°F-2.8°C 65% 2.9 mph S4.7 kmh S 2.9 mph4.7 kmh 29.76 in1007.8 mb 0.00 in0.0 mm 0.00 in/hr0.0 mm/hr 0.00 in0.0 mm
02:27 AM 37.4°F3.0°C 27.8°F-2.3°C 68% 3.4 mph S5.5 kmh S 3.4 mph5.5 kmh 29.76 in1007.8 mb 0.00 in0.0 mm 0.00 in/hr0.0 mm/hr 0.00 in0.0 mm
02:20 AM 37.2°F2.9°C 29.0°F-1.7°C 72% 4.9 mph S7.9 kmh S 4.9 mph7.9 kmh 29.76 in1007.8 mb 0.00 in0.0 mm 0.00 in/hr0.0 mm/hr 0.00 in0.0 mm
02:13 AM 36.9°F2.7°C 29.0°F-1.7°C 73% 6.0 mph SSW9.7 kmh SSW 6.0 mph9.7 kmh 29.76 in1007.8 mb 0.00 in0.0 mm 0.00 in/hr0.0 mm/hr 0.00 in0.0 mm
02:03 AM 36.0°F2.2°C 27.5°F-2.5°C 71% 2.5 mph SSW4.0 kmh SSW 4.0 mph6.4 kmh 29.79 in1008.8 mb 0.00 in0.0 mm 0.00 in/hr0.0 mm/hr 0.00 in0.0 mm
01:56 AM 35.6°F2.0°C 26.8°F-2.9°C 70% 2.2 mph SSE3.5 kmh SSE 2.2 mph3.5 kmh 29.79 in1008.8 mb 0.00 in0.0 mm 0.00 in/hr0.0 mm/hr 0.00 in0.0 mm
01:49 AM 35.4°F1.9°C 26.6°F-3.0°C 70% 2.0 mph SSW3.2 kmh SSW 2.0 mph3.2 kmh 29.79 in1008.8 mb 0.00 in0.0 mm 0.00 in/hr0.0 mm/hr 0.00 in0.0 mm
01:42 AM 35.4°F1.9°C 26.3°F-3.2°C 69% 2.0 mph SSW3.2 kmh SSW 2.0 mph3.2 kmh 29.79 in1008.8 mb 0.00 in0.0 mm 0.00 in/hr0.0 mm/hr 0.00 in0.0 mm
01:35 AM 35.4°F1.9°C 26.3°F-3.2°C 69% 1.6 mph SSW2.6 kmh SSW 1.6 mph2.6 kmh 29.79 in1008.8 mb 0.00 in0.0 mm 0.00 in/hr0.0 mm/hr 0.00 in0.0 mm
01:33 AM 35.4°F1.9°C 26.3°F-3.2°C 69% Calm Calm -- 29.79 in1008.8 mb 0.00 in0.0 mm 0.00 in/hr0.0 mm/hr 0.00 in0.0 mm
01:26 AM 35.8°F2.1°C 26.6°F-3.0°C 69% Calm Calm -- 29.79 in1008.8 mb 0.00 in0.0 mm 0.00 in/hr0.0 mm/hr 0.00 in0.0 mm
01:19 AM 35.8°F2.1°C 26.6°F-3.0°C 69% 2.0 mph WNW3.2 kmh WNW 2.0 mph3.2 kmh 29.79 in1008.8 mb 0.00 in0.0 mm 0.00 in/hr0.0 mm/hr 0.00 in0.0 mm
01:12 AM 35.6°F2.0°C 26.1°F-3.3°C 68% 2.7 mph S4.3 kmh S 2.7 mph4.3 kmh 29.79 in1008.8 mb 0.00 in0.0 mm 0.00 in/hr0.0 mm/hr 0.00 in0.0 mm
01:05 AM 35.6°F2.0°C 26.1°F-3.3°C 68% Calm Calm -- 29.79 in1008.8 mb 0.00 in0.0 mm 0.00 in/hr0.0 mm/hr 0.00 in0.0 mm
01:02 AM 35.8°F2.1°C 26.3°F-3.2°C 68% Calm Calm -- 29.79 in1008.8 mb 0.00 in0.0 mm 0.00 in/hr0.0 mm/hr 0.00 in0.0 mm